createdAt,value
2022-08-17T00:00:15.796Z,5.47
2022-08-17T00:03:06.753Z,5.40
2022-08-17T00:05:38.898Z,5.30
2022-08-17T00:08:06.076Z,5.30
2022-08-17T00:10:33.370Z,5.60
2022-08-17T00:13:04.565Z,5.05
2022-08-17T00:15:31.401Z,5.55
2022-08-17T00:17:58.225Z,5.53
2022-08-17T00:20:30.589Z,5.05
2022-08-17T00:23:08.257Z,5.50
2022-08-17T00:25:35.249Z,5.38
2022-08-17T00:28:02.245Z,5.50
2022-08-17T00:30:30.082Z,5.00
2022-08-17T00:33:21.256Z,5.43
2022-08-17T00:35:49.571Z,5.20
2022-08-17T00:38:16.913Z,5.00
2022-08-17T00:40:55.911Z,5.35
2022-08-17T00:43:39.585Z,5.35
2022-08-17T00:46:30.026Z,5.90
2022-08-17T00:48:57.983Z,5.05
2022-08-17T00:51:36.747Z,5.47
2022-08-17T00:54:11.823Z,6.10
2022-08-17T00:56:44.758Z,5.95
2022-08-17T00:59:16.068Z,5.80
2022-08-17T01:01:43.336Z,5.82
2022-08-17T01:04:11.329Z,6.45
2022-08-17T01:06:38.721Z,6.53
2022-08-17T01:09:05.898Z,6.10
2022-08-17T01:11:33.250Z,6.25
2022-08-17T01:14:00.105Z,6.60
2022-08-17T01:16:31.513Z,6.57
2022-08-17T01:19:23.607Z,6.65
2022-08-17T01:22:07.591Z,6.82
2022-08-17T01:24:36.921Z,6.88
2022-08-17T01:27:10.441Z,6.55
2022-08-17T01:29:40.971Z,5.93
2022-08-17T01:32:08.785Z,6.47
2022-08-17T01:34:43.492Z,6.03
2022-08-17T01:37:13.141Z,6.55
2022-08-17T01:39:57.949Z,6.63
2022-08-17T01:42:36.566Z,6.38
2022-08-17T01:45:18.727Z,6.88
2022-08-17T01:47:45.904Z,6.88
2022-08-17T01:50:19.415Z,7.10
2022-08-17T01:52:49.353Z,6.78
2022-08-17T01:55:24.591Z,6.70
2022-08-17T01:57:53.984Z,6.55
2022-08-17T02:00:21.061Z,7.30
2022-08-17T02:02:48.081Z,6.55
2022-08-17T02:05:15.144Z,6.40
2022-08-17T02:07:47.975Z,7.03
2022-08-17T02:10:33.655Z,6.82
2022-08-17T02:13:03.346Z,7.53
2022-08-17T02:15:30.295Z,7.10
2022-08-17T02:17:57.165Z,7.70
2022-08-17T02:20:42.107Z,6.85
2022-08-17T02:23:11.871Z,7.20
2022-08-17T02:25:43.398Z,7.20
2022-08-17T02:28:11.102Z,7.17
2022-08-17T02:31:01.488Z,7.00
2022-08-17T02:33:24.983Z,6.88
2022-08-17T02:36:12.629Z,6.70
2022-08-17T02:38:40.693Z,7.05
2022-08-17T02:41:07.703Z,6.65
2022-08-17T02:43:34.963Z,7.00
2022-08-17T02:46:02.052Z,7.20
2022-08-17T02:48:31.493Z,7.75
2022-08-17T02:51:02.118Z,7.25
2022-08-17T02:53:36.057Z,7.25
2022-08-17T02:56:03.861Z,7.20
2022-08-17T02:58:34.930Z,8.27
2022-08-17T03:01:04.114Z,7.63
2022-08-17T03:03:30.959Z,7.97
2022-08-17T03:05:57.949Z,7.93
2022-08-17T03:08:25.574Z,8.07
2022-08-17T03:10:52.624Z,7.63
2022-08-17T03:13:20.126Z,8.07
2022-08-17T03:15:48.334Z,7.47
2022-08-17T03:18:24.336Z,7.80
2022-08-17T03:20:55.393Z,7.78
2022-08-17T03:23:24.258Z,7.70
2022-08-17T03:25:53.637Z,7.75
2022-08-17T03:28:22.259Z,7.90
2022-08-17T03:30:51.149Z,7.18
2022-08-17T03:33:18.626Z,7.85
2022-08-17T03:35:45.549Z,7.05
2022-08-17T03:38:15.053Z,7.28
2022-08-17T03:40:58.020Z,8.32
2022-08-17T03:43:30.201Z,7.55
2022-08-17T03:46:27.704Z,7.15
2022-08-17T03:49:21.097Z,7.53
2022-08-17T03:52:06.551Z,8.50
2022-08-17T03:54:52.226Z,8.13
2022-08-17T03:57:19.311Z,7.93
2022-08-17T03:59:46.507Z,8.02
2022-08-17T04:02:19.947Z,7.75
2022-08-17T04:04:50.809Z,7.65
2022-08-17T04:07:19.703Z,7.88
2022-08-17T04:09:46.897Z,8.48
2022-08-17T04:12:16.389Z,7.43
2022-08-17T04:14:51.940Z,7.70
2022-08-17T04:17:27.239Z,7.63
2022-08-17T04:19:55.073Z,7.63
2022-08-17T04:22:32.978Z,8.02
2022-08-17T04:25:13.655Z,8.40
2022-08-17T04:27:40.492Z,8.13
2022-08-17T04:30:08.098Z,8.52
2022-08-17T04:33:10.824Z,7.95
2022-08-17T04:35:59.840Z,8.50
2022-08-17T04:38:30.573Z,8.70
2022-08-17T04:41:17.196Z,8.40
2022-08-17T04:43:45.525Z,7.88
2022-08-17T04:46:15.122Z,8.20
2022-08-17T04:48:45.766Z,8.15
2022-08-17T04:51:17.180Z,9.05
2022-08-17T04:53:47.625Z,8.35
2022-08-17T04:56:21.608Z,8.60
2022-08-17T04:58:50.330Z,8.70
2022-08-17T05:01:24.025Z,8.35
2022-08-17T05:03:53.108Z,7.80
2022-08-17T05:06:20.186Z,8.68
2022-08-17T05:08:47.077Z,8.02
2022-08-17T05:11:14.725Z,8.23
2022-08-17T05:13:41.896Z,8.55
2022-08-17T05:16:09.203Z,8.27
2022-08-17T05:18:37.318Z,8.23
2022-08-17T05:21:04.702Z,7.45
2022-08-17T05:23:43.070Z,7.80
2022-08-17T05:26:26.516Z,7.68
2022-08-17T05:28:57.097Z,7.57
2022-08-17T05:31:26.655Z,8.00
2022-08-17T05:33:53.634Z,7.90
2022-08-17T05:36:41.934Z,7.70
2022-08-17T05:39:07.821Z,7.45
2022-08-17T05:41:34.596Z,7.88
2022-08-17T05:44:05.333Z,7.20
2022-08-17T05:46:39.932Z,7.22
2022-08-17T05:49:08.135Z,7.55
2022-08-17T05:51:41.157Z,7.32
2022-08-17T05:54:19.946Z,8.25
2022-08-17T05:57:11.607Z,7.90
2022-08-17T05:59:51.092Z,7.43
2022-08-17T06:02:47.658Z,7.30
2022-08-17T06:05:38.186Z,8.57
2022-08-17T06:08:20.223Z,7.82
2022-08-17T06:10:56.042Z,7.25
2022-08-17T06:13:35.223Z,7.30
2022-08-17T06:16:03.276Z,7.65
2022-08-17T06:18:44.095Z,7.15
2022-08-17T06:21:15.593Z,7.43
2022-08-17T06:23:48.631Z,7.83
2022-08-17T06:26:20.808Z,7.60
2022-08-17T06:29:02.769Z,14.23
2022-08-17T06:31:34.723Z,8.73
2022-08-17T06:34:04.302Z,7.88
2022-08-17T06:36:54.265Z,7.35
2022-08-17T06:39:59.933Z,8.38
2022-08-17T06:43:06.029Z,7.32
2022-08-17T06:45:54.224Z,7.32
2022-08-17T06:48:31.099Z,7.22
2022-08-17T06:51:06.530Z,6.57
2022-08-17T06:53:42.749Z,6.70
2022-08-17T06:56:20.306Z,6.85
2022-08-17T06:58:48.316Z,6.53
2022-08-17T07:01:26.891Z,7.43
2022-08-17T07:04:11.653Z,6.90
2022-08-17T07:06:46.945Z,7.00
2022-08-17T07:09:18.108Z,6.50
2022-08-17T07:12:01.875Z,7.10
2022-08-17T07:14:37.579Z,7.00
2022-08-17T07:17:12.095Z,7.03
2022-08-17T07:19:41.074Z,6.72
2022-08-17T07:22:57.603Z,6.80
2022-08-17T07:25:21.541Z,6.45
2022-08-17T07:27:54.639Z,5.85
2022-08-17T07:30:37.266Z,6.53
2022-08-17T07:33:21.000Z,5.80
2022-08-17T07:35:49.900Z,6.00
2022-08-17T07:38:32.122Z,6.13
2022-08-17T07:41:05.163Z,5.55
2022-08-17T07:43:48.400Z,5.22
2022-08-17T07:46:45.682Z,4.97
2022-08-17T07:49:15.303Z,4.90
2022-08-17T07:51:45.797Z,4.95
2022-08-17T07:54:15.627Z,5.00
2022-08-17T07:56:48.711Z,5.22
2022-08-17T07:59:23.347Z,5.15
2022-08-17T08:01:58.094Z,4.47
2022-08-17T08:05:00.171Z,4.90
2022-08-17T08:07:21.148Z,4.90
2022-08-17T08:10:06.831Z,4.60
2022-08-17T08:12:38.745Z,5.05
2022-08-17T08:15:23.235Z,4.32
2022-08-17T08:17:59.291Z,4.70
2022-08-17T08:20:53.855Z,4.80
2022-08-17T08:23:45.624Z,4.53
2022-08-17T08:26:18.628Z,4.28
2022-08-17T08:29:00.340Z,5.50
2022-08-17T08:31:32.947Z,5.03
2022-08-17T08:35:00.614Z,4.70
2022-08-17T08:37:22.738Z,4.67
2022-08-17T08:40:11.033Z,4.50
2022-08-17T08:42:45.759Z,4.35
2022-08-17T08:45:16.373Z,4.45
2022-08-17T08:48:55.879Z,5.90
2022-08-17T08:51:42.276Z,5.15
2022-08-17T08:54:47.588Z,4.05
2022-08-17T08:57:37.845Z,4.32
2022-08-17T09:00:14.810Z,3.95
2022-08-17T09:03:17.039Z,4.07
2022-08-17T09:05:58.627Z,4.45
2022-08-17T09:08:53.542Z,3.70
2022-08-17T09:11:28.809Z,3.72
2022-08-17T09:14:21.033Z,4.68
2022-08-17T09:17:13.001Z,4.70
2022-08-17T09:19:47.997Z,3.50
2022-08-17T09:22:42.713Z,3.70
2022-08-17T09:25:22.082Z,3.58
2022-08-17T09:28:03.921Z,3.70
2022-08-17T09:30:55.330Z,2.95
2022-08-17T09:33:28.273Z,3.45
2022-08-17T09:36:11.750Z,2.90
2022-08-17T09:38:44.293Z,3.30
2022-08-17T09:41:56.124Z,3.15
2022-08-17T09:44:44.103Z,2.63
2022-08-17T09:47:34.574Z,2.83
2022-08-17T09:51:03.139Z,2.40
2022-08-17T09:53:09.359Z,2.22
2022-08-17T09:55:59.455Z,2.53
2022-08-17T09:58:47.643Z,2.75
2022-08-17T10:01:37.379Z,2.80
2022-08-17T10:04:10.026Z,2.70
2022-08-17T10:07:16.043Z,2.63
2022-08-17T10:09:57.756Z,2.35
2022-08-17T10:12:59.174Z,2.45
2022-08-17T10:15:28.884Z,2.03
2022-08-17T10:18:07.421Z,2.42
2022-08-17T10:21:19.423Z,2.50
2022-08-17T10:24:09.178Z,2.30
2022-08-17T10:26:55.328Z,2.10
2022-08-17T10:30:04.722Z,2.75
2022-08-17T10:32:49.080Z,2.13
2022-08-17T10:35:37.041Z,2.20
2022-08-17T10:38:41.920Z,2.05
2022-08-17T10:41:47.757Z,2.10
2022-08-17T10:44:40.320Z,2.00
2022-08-17T10:47:16.743Z,2.30
2022-08-17T10:49:54.274Z,2.25
2022-08-17T10:52:24.952Z,2.10
2022-08-17T10:54:56.683Z,2.47
2022-08-17T10:57:36.682Z,2.45
2022-08-17T11:00:35.924Z,2.38
2022-08-17T11:03:14.504Z,2.55
2022-08-17T11:06:22.896Z,2.35
2022-08-17T11:09:09.928Z,2.00
2022-08-17T11:11:45.356Z,2.47
2022-08-17T11:14:33.912Z,2.30
2022-08-17T11:17:45.490Z,2.60
2022-08-17T11:20:45.792Z,2.10
2022-08-17T11:23:36.174Z,1.90
2022-08-17T11:26:17.921Z,2.72
2022-08-17T11:28:52.702Z,2.40
2022-08-17T11:31:46.550Z,2.42
2022-08-17T11:34:26.447Z,2.30
2022-08-17T11:37:03.901Z,2.22
2022-08-17T11:39:39.296Z,2.03
2022-08-17T11:42:25.470Z,2.45
2022-08-17T11:45:03.356Z,2.40
2022-08-17T11:48:27.407Z,2.20
2022-08-17T11:51:24.350Z,2.17
2022-08-17T11:54:03.572Z,2.00
2022-08-17T11:56:49.200Z,1.83
2022-08-17T11:59:37.057Z,1.75
2022-08-17T12:02:25.293Z,2.03
2022-08-17T12:05:12.471Z,1.77
2022-08-17T12:08:19.693Z,1.80
2022-08-17T12:11:06.191Z,1.58
2022-08-17T12:13:45.172Z,1.70
2022-08-17T12:16:20.191Z,1.70
2022-08-17T12:19:06.046Z,1.83
2022-08-17T12:21:53.829Z,1.73
2022-08-17T12:24:47.197Z,1.90
2022-08-17T12:28:04.110Z,2.10
2022-08-17T12:30:15.080Z,1.80
2022-08-17T12:32:46.073Z,1.70
2022-08-17T12:35:21.728Z,1.83
2022-08-17T12:37:50.469Z,2.25
2022-08-17T12:40:22.587Z,1.60
2022-08-17T12:43:02.474Z,1.90
2022-08-17T12:45:35.731Z,2.00
2022-08-17T12:48:21.803Z,1.75
2022-08-17T12:50:50.933Z,1.92
2022-08-17T12:53:27.290Z,1.63
2022-08-17T12:55:56.228Z,1.70
2022-08-17T12:58:26.713Z,2.25
2022-08-17T13:01:08.849Z,1.98
2022-08-17T13:03:39.867Z,1.45
2022-08-17T13:06:14.536Z,2.03
2022-08-17T13:08:43.644Z,1.50
2022-08-17T13:11:19.227Z,1.73
2022-08-17T13:13:50.845Z,1.98
2022-08-17T13:18:55.083Z,2.05
2022-08-17T13:21:30.470Z,1.73
2022-08-17T13:24:11.058Z,2.08
2022-08-17T13:26:41.860Z,1.73
2022-08-17T13:29:32.248Z,1.40
2022-08-17T13:32:12.995Z,1.88
2022-08-17T13:35:12.516Z,2.10
2022-08-17T13:38:01.359Z,2.00
2022-08-17T13:40:53.247Z,2.42
2022-08-17T13:46:32.557Z,2.30
2022-08-17T13:49:06.443Z,2.65
2022-08-17T13:51:41.399Z,2.10
2022-08-17T13:54:29.632Z,2.15
2022-08-17T13:56:57.879Z,1.95
2022-08-17T13:59:54.785Z,2.50
2022-08-17T14:02:27.773Z,1.70
2022-08-17T14:04:56.635Z,2.10
2022-08-17T14:07:29.006Z,1.50
2022-08-17T14:10:00.329Z,1.88
2022-08-17T14:12:30.712Z,2.13
2022-08-17T14:14:59.488Z,1.90
2022-08-17T14:17:28.921Z,1.70
2022-08-17T14:19:56.023Z,1.55
2022-08-17T14:22:33.105Z,1.55
2022-08-17T14:25:04.092Z,1.58
2022-08-17T14:27:47.113Z,1.30
2022-08-17T14:30:22.306Z,1.40
2022-08-17T14:32:51.645Z,2.08
2022-08-17T14:35:22.599Z,1.50
2022-08-17T14:37:50.666Z,1.53
2022-08-17T14:40:20.970Z,1.30
2022-08-17T14:42:48.254Z,1.30
2022-08-17T14:45:31.723Z,1.70
2022-08-17T14:48:01.284Z,1.42
2022-08-17T14:50:28.071Z,1.60
2022-08-17T14:52:59.192Z,1.40
2022-08-17T14:55:28.361Z,1.80
2022-08-17T14:57:55.202Z,1.48
2022-08-17T15:00:22.187Z,1.45
2022-08-17T15:02:55.814Z,1.55
2022-08-17T15:05:25.218Z,1.40
2022-08-17T15:07:55.831Z,1.50
2022-08-17T15:10:25.606Z,1.50
2022-08-17T15:12:52.788Z,1.50
2022-08-17T15:15:20.263Z,1.50
2022-08-17T15:17:47.135Z,1.60
2022-08-17T15:20:18.206Z,1.70
2022-08-17T15:22:46.861Z,1.60
2022-08-17T15:25:14.050Z,1.75
2022-08-17T15:27:41.373Z,1.60
2022-08-17T15:30:10.071Z,1.60
2022-08-17T15:32:39.290Z,1.70
2022-08-17T15:35:07.702Z,1.77
2022-08-17T15:37:36.405Z,1.63
2022-08-17T15:40:04.132Z,1.70
2022-08-17T15:42:30.963Z,1.52
2022-08-17T15:44:59.906Z,1.70
2022-08-17T15:47:26.829Z,1.50
2022-08-17T15:49:59.481Z,1.77
2022-08-17T15:52:30.047Z,1.88
2022-08-17T15:54:59.945Z,1.55
2022-08-17T15:57:27.710Z,1.50
2022-08-17T15:59:58.584Z,1.77
2022-08-17T16:03:46.050Z,2.53
2022-08-17T16:05:21.960Z,2.45
2022-08-17T16:07:51.417Z,3.33
2022-08-17T16:10:19.415Z,4.10
2022-08-17T16:12:48.033Z,3.72
2022-08-17T16:15:15.515Z,3.60
2022-08-17T16:17:42.698Z,4.15
2022-08-17T16:20:20.332Z,3.25
2022-08-17T16:22:50.111Z,3.50
2022-08-17T16:25:52.340Z,3.33
2022-08-17T16:28:16.817Z,3.80
2022-08-17T16:30:43.647Z,3.80
2022-08-17T16:33:11.661Z,3.30
2022-08-17T16:35:41.886Z,3.55
2022-08-17T16:38:09.551Z,4.10
2022-08-17T16:40:38.129Z,3.95
2022-08-17T16:43:10.564Z,3.88
2022-08-17T16:45:40.243Z,3.95
2022-08-17T16:48:08.078Z,3.45
2022-08-17T16:50:35.916Z,3.90
2022-08-17T16:53:17.330Z,3.30
2022-08-17T16:55:45.652Z,4.32
2022-08-17T16:58:12.620Z,3.90
2022-08-17T17:00:39.642Z,3.88
2022-08-17T17:03:19.173Z,3.72
2022-08-17T17:06:01.567Z,3.38
2022-08-17T17:08:49.572Z,3.30
2022-08-17T17:11:26.041Z,3.30
2022-08-17T17:14:02.393Z,3.70
2022-08-17T17:16:29.265Z,3.95
2022-08-17T17:18:56.020Z,3.47
2022-08-17T17:21:32.118Z,3.53
2022-08-17T17:27:02.612Z,4.22
2022-08-17T17:29:52.764Z,4.40
2022-08-17T17:32:25.552Z,4.00
2022-08-17T17:35:00.108Z,5.25
2022-08-17T17:37:33.891Z,3.90
2022-08-17T17:40:19.091Z,4.25
2022-08-17T17:42:46.772Z,3.60
2022-08-17T17:45:20.227Z,3.38
2022-08-17T17:47:47.577Z,3.60
2022-08-17T17:50:18.001Z,3.30
2022-08-17T17:53:03.683Z,3.70
2022-08-17T17:55:30.536Z,4.13
2022-08-17T17:58:09.340Z,4.25
2022-08-17T18:00:54.117Z,4.28
2022-08-17T18:03:59.038Z,4.00
2022-08-17T18:06:50.513Z,3.92
2022-08-17T18:09:26.226Z,4.20
2022-08-17T18:11:59.140Z,3.80
2022-08-17T18:14:49.777Z,3.80
2022-08-17T18:17:18.217Z,3.78
2022-08-17T18:19:45.292Z,3.70
2022-08-17T18:22:18.949Z,3.53
2022-08-17T18:24:55.980Z,3.30
2022-08-17T18:27:39.037Z,3.88
2022-08-17T18:30:14.877Z,3.90
2022-08-17T18:32:43.698Z,3.95
2022-08-17T18:35:16.632Z,4.30
2022-08-17T18:37:52.731Z,4.20
2022-08-17T18:40:19.900Z,4.45
2022-08-17T18:43:05.654Z,4.80
2022-08-17T18:45:41.024Z,4.50
2022-08-17T18:48:32.972Z,4.43
2022-08-17T18:51:21.581Z,4.55
2022-08-17T18:54:09.300Z,4.53
2022-08-17T18:56:40.386Z,4.60
2022-08-17T18:59:12.130Z,4.55
2022-08-17T19:02:10.184Z,4.95
2022-08-17T19:05:22.879Z,5.05
2022-08-17T19:07:49.969Z,4.95
2022-08-17T19:10:28.757Z,5.20
2022-08-17T19:13:14.569Z,5.20
2022-08-17T19:16:14.714Z,5.82
2022-08-17T19:18:52.251Z,5.47
2022-08-17T19:21:33.021Z,7.22
2022-08-17T19:24:13.476Z,10.88
2022-08-17T19:26:53.609Z,9.48
2022-08-17T19:29:51.327Z,8.32
2022-08-17T19:32:24.471Z,7.95
2022-08-17T19:34:52.223Z,9.13
2022-08-17T19:37:42.062Z,8.40
2022-08-17T19:40:29.201Z,8.02
2022-08-17T19:43:02.402Z,8.60
2022-08-17T19:45:35.063Z,7.88
2022-08-17T19:48:17.438Z,7.65
2022-08-17T19:50:48.214Z,6.60
2022-08-17T19:53:41.748Z,6.28
2022-08-17T19:56:22.061Z,5.80
2022-08-17T19:59:07.655Z,6.20
2022-08-17T20:01:54.758Z,6.18
2022-08-17T20:04:31.853Z,6.22
2022-08-17T20:07:08.237Z,5.80
2022-08-17T20:09:39.255Z,6.00
2022-08-17T20:12:12.299Z,5.90
2022-08-17T20:14:53.926Z,5.82
2022-08-17T20:17:31.643Z,6.70
2022-08-17T20:20:03.958Z,6.78
2022-08-17T20:22:52.444Z,6.15
2022-08-17T20:25:30.932Z,6.90
2022-08-17T20:28:06.905Z,6.28
2022-08-17T20:30:43.683Z,6.50
2022-08-17T20:33:42.909Z,5.80
2022-08-17T20:36:24.845Z,5.80
2022-08-17T20:38:57.127Z,6.05
2022-08-17T20:41:30.365Z,5.82
2022-08-17T20:43:57.138Z,5.80
2022-08-17T20:46:27.557Z,6.63
2022-08-17T20:48:59.746Z,6.28
2022-08-17T20:51:27.299Z,6.45
2022-08-17T20:53:54.058Z,6.43
2022-08-17T20:56:43.373Z,6.15
2022-08-17T20:59:31.616Z,6.28
2022-08-17T21:02:17.548Z,6.72
2022-08-17T21:04:50.833Z,6.70
2022-08-17T21:07:42.627Z,6.47
2022-08-17T21:10:25.156Z,6.50
2022-08-17T21:13:24.277Z,7.60
2022-08-17T21:16:22.885Z,7.40
2022-08-17T21:19:22.114Z,7.10
2022-08-17T21:22:25.637Z,7.40
2022-08-17T21:25:13.530Z,7.60
2022-08-17T21:27:46.037Z,8.05
2022-08-17T21:30:29.604Z,7.20
2022-08-17T21:33:18.798Z,6.95
2022-08-17T21:35:54.579Z,7.55
2022-08-17T21:38:49.047Z,7.55
2022-08-17T21:41:34.707Z,7.13
2022-08-17T21:44:18.988Z,8.00
2022-08-17T21:46:50.207Z,7.75
2022-08-17T21:49:19.854Z,8.10
2022-08-17T21:51:56.363Z,7.90
2022-08-17T21:54:35.751Z,7.43
2022-08-17T21:57:06.931Z,8.75
2022-08-17T21:59:40.395Z,9.18
2022-08-17T22:02:16.530Z,7.93
2022-08-17T22:04:54.983Z,8.43
2022-08-17T22:07:48.453Z,8.98
2022-08-17T22:10:37.808Z,9.13
2022-08-17T22:13:17.381Z,8.57
2022-08-17T22:16:28.380Z,8.52
2022-08-17T22:18:58.151Z,8.77
2022-08-17T22:21:25.537Z,8.88
2022-08-17T22:24:04.937Z,8.88
2022-08-17T22:26:57.413Z,8.80
2022-08-17T22:29:43.072Z,9.40
2022-08-17T22:32:10.115Z,8.80
2022-08-17T22:34:38.972Z,9.32
2022-08-17T22:37:29.135Z,9.23
2022-08-17T22:39:59.822Z,8.73
2022-08-17T22:42:28.526Z,8.73
2022-08-17T22:44:55.362Z,9.40
2022-08-17T22:47:48.524Z,9.82
2022-08-17T22:50:25.915Z,8.70
2022-08-17T22:53:35.643Z,9.82
2022-08-17T22:56:21.964Z,9.63
2022-08-17T22:59:13.243Z,9.82
2022-08-17T23:01:41.986Z,9.20
2022-08-17T23:04:13.291Z,9.35
2022-08-17T23:06:43.633Z,9.48
2022-08-17T23:09:10.461Z,9.20
2022-08-17T23:11:49.033Z,9.38
2022-08-17T23:14:19.087Z,9.73
2022-08-17T23:16:47.187Z,10.63
2022-08-17T23:19:16.917Z,11.35
2022-08-17T23:21:48.143Z,11.57
2022-08-17T23:24:20.739Z,11.40
2022-08-17T23:26:47.531Z,11.43
2022-08-17T23:29:14.555Z,11.07
2022-08-17T23:31:41.620Z,12.13
2022-08-17T23:34:13.981Z,11.77
2022-08-17T23:36:41.499Z,12.18
2022-08-17T23:39:08.374Z,11.73
2022-08-17T23:41:38.499Z,11.50
2022-08-17T23:44:06.493Z,12.45
2022-08-17T23:46:34.641Z,12.10
2022-08-17T23:49:01.602Z,11.73
2022-08-17T23:51:33.462Z,12.05
2022-08-17T23:54:21.386Z,11.20
2022-08-17T23:56:48.320Z,11.10
2022-08-17T23:59:20.174Z,10.23
